createdAt,value
2023-03-27T00:01:57.180Z,7.40
2023-03-27T00:04:23.886Z,7.40
2023-03-27T00:07:12.660Z,7.40
2023-03-27T00:09:39.279Z,7.40
2023-03-27T00:12:06.318Z,7.30
2023-03-27T00:14:33.085Z,7.30
2023-03-27T00:17:03.794Z,7.20
2023-03-27T00:19:38.593Z,7.20
2023-03-27T00:22:07.466Z,7.20
2023-03-27T00:24:34.361Z,7.10
2023-03-27T00:27:01.229Z,7.10
2023-03-27T00:29:37.401Z,7.10
2023-03-27T00:32:07.294Z,7.00
2023-03-27T00:34:36.132Z,7.00
2023-03-27T00:37:15.130Z,7.00
2023-03-27T00:39:43.399Z,6.90
2023-03-27T00:42:16.390Z,6.90
2023-03-27T00:44:43.067Z,6.90
2023-03-27T00:47:14.783Z,6.90
2023-03-27T00:49:53.978Z,6.80
2023-03-27T00:52:29.236Z,6.80
2023-03-27T00:55:04.774Z,6.80
2023-03-27T00:57:33.052Z,6.80
2023-03-27T01:00:02.122Z,6.80
2023-03-27T01:02:32.628Z,6.70
2023-03-27T01:05:01.668Z,6.70
2023-03-27T01:07:28.860Z,6.70
2023-03-27T01:09:56.254Z,6.70
2023-03-27T01:12:56.792Z,6.60
2023-03-27T01:15:34.893Z,6.60
2023-03-27T01:18:32.430Z,6.60
2023-03-27T01:21:51.777Z,6.60
2023-03-27T01:24:52.565Z,6.60
2023-03-27T01:27:40.852Z,6.60
2023-03-27T01:30:23.613Z,6.50
2023-03-27T01:33:19.932Z,6.50
2023-03-27T01:36:05.394Z,6.50
2023-03-27T01:39:08.982Z,6.50
2023-03-27T01:42:05.792Z,6.40
2023-03-27T01:44:44.537Z,6.30
2023-03-27T01:47:36.295Z,6.40
2023-03-27T01:50:18.176Z,6.40
2023-03-27T01:52:52.613Z,6.40
2023-03-27T01:55:27.846Z,6.30
2023-03-27T01:58:07.449Z,6.30
2023-03-27T02:00:52.194Z,6.30
2023-03-27T02:03:49.020Z,6.50
2023-03-27T02:06:30.042Z,6.20
2023-03-27T02:09:03.751Z,6.30
2023-03-27T02:11:37.633Z,6.20
2023-03-27T02:14:19.339Z,6.20
2023-03-27T02:17:02.387Z,6.20
2023-03-27T02:19:35.829Z,6.20
2023-03-27T02:22:03.327Z,6.10
2023-03-27T02:24:38.805Z,6.10
2023-03-27T02:27:35.980Z,6.10
2023-03-27T02:30:08.618Z,6.10
2023-03-27T02:32:47.899Z,6.20
2023-03-27T02:35:41.868Z,6.20
2023-03-27T02:38:19.357Z,6.20
2023-03-27T02:41:07.120Z,6.20
2023-03-27T02:44:02.032Z,6.20
2023-03-27T02:46:58.275Z,6.20
2023-03-27T02:49:43.915Z,6.20
2023-03-27T02:52:22.127Z,6.20
2023-03-27T02:54:59.066Z,6.10
2023-03-27T02:57:32.615Z,6.10
2023-03-27T03:00:25.807Z,6.10
2023-03-27T03:03:30.310Z,6.10
2023-03-27T03:06:15.323Z,6.10
2023-03-27T03:08:43.122Z,6.00
2023-03-27T03:11:14.161Z,6.10
2023-03-27T03:13:43.279Z,6.00
2023-03-27T03:16:10.360Z,6.00
2023-03-27T03:18:41.867Z,6.00
2023-03-27T03:21:08.447Z,6.00
2023-03-27T03:23:35.166Z,6.00
2023-03-27T03:26:02.985Z,6.00
2023-03-27T03:28:43.055Z,6.00
2023-03-27T03:31:43.588Z,6.00
2023-03-27T03:34:15.740Z,6.00
2023-03-27T03:36:45.881Z,6.00
2023-03-27T03:39:18.554Z,6.00
2023-03-27T03:41:52.147Z,6.10
2023-03-27T03:44:28.530Z,6.10
2023-03-27T03:46:58.661Z,6.10
2023-03-27T03:49:27.552Z,6.20
2023-03-27T03:52:05.271Z,6.20
2023-03-27T03:54:36.509Z,6.20
2023-03-27T03:57:05.676Z,6.30
2023-03-27T03:59:36.515Z,6.30
2023-03-27T04:02:38.398Z,6.30
2023-03-27T04:05:14.287Z,6.40
2023-03-27T04:07:45.482Z,6.40
2023-03-27T04:10:35.572Z,6.50
2023-03-27T04:13:12.230Z,6.50
2023-03-27T04:15:48.590Z,6.50
2023-03-27T04:18:39.085Z,6.60
2023-03-27T04:21:14.246Z,6.60
2023-03-27T04:23:49.678Z,6.60
2023-03-27T04:26:27.036Z,6.60
2023-03-27T04:29:22.101Z,6.60
2023-03-27T04:32:01.124Z,6.60
2023-03-27T04:34:40.657Z,6.70
2023-03-27T04:37:27.756Z,6.70
2023-03-27T04:40:06.750Z,6.70
2023-03-27T04:42:33.352Z,6.60
2023-03-27T04:45:01.417Z,6.60
2023-03-27T04:47:28.194Z,6.60
2023-03-27T04:50:00.727Z,6.60
2023-03-27T04:52:29.458Z,6.60
2023-03-27T04:54:58.769Z,6.60
2023-03-27T04:57:28.544Z,6.60
2023-03-27T05:00:02.338Z,6.70
2023-03-27T05:03:07.632Z,6.70
2023-03-27T05:05:47.528Z,6.80
2023-03-27T05:08:14.123Z,6.80
2023-03-27T05:10:42.387Z,6.80
2023-03-27T05:13:10.675Z,6.80
2023-03-27T05:15:38.895Z,6.80
2023-03-27T05:18:08.852Z,6.80
2023-03-27T05:20:36.633Z,6.90
2023-03-27T05:23:08.047Z,6.90
2023-03-27T05:25:39.215Z,6.90
2023-03-27T05:28:11.008Z,6.90
2023-03-27T05:30:42.824Z,6.90
2023-03-27T05:33:18.544Z,6.90
2023-03-27T05:35:47.223Z,6.90
2023-03-27T05:38:15.326Z,6.90
2023-03-27T05:41:02.071Z,6.90
2023-03-27T05:43:30.742Z,6.90
2023-03-27T05:45:57.700Z,6.90
2023-03-27T05:48:24.651Z,6.90
2023-03-27T05:50:51.207Z,6.80
2023-03-27T05:53:28.438Z,6.80
2023-03-27T05:56:18.717Z,6.80
2023-03-27T05:58:54.185Z,6.80
2023-03-27T06:01:23.411Z,6.80
2023-03-27T06:03:55.893Z,6.80
2023-03-27T06:06:39.148Z,6.70
2023-03-27T06:09:05.750Z,6.80
2023-03-27T06:11:36.287Z,6.80
2023-03-27T06:14:03.957Z,6.80
2023-03-27T06:16:46.501Z,6.80
2023-03-27T06:19:33.057Z,6.80
2023-03-27T06:21:59.659Z,6.80
2023-03-27T06:24:26.277Z,6.80
2023-03-27T06:26:52.962Z,6.80
2023-03-27T06:29:21.061Z,6.80
2023-03-27T06:31:50.850Z,6.80
2023-03-27T06:34:29.136Z,6.80
2023-03-27T06:37:04.351Z,6.80
2023-03-27T06:39:40.358Z,6.80
2023-03-27T06:42:07.199Z,6.80
2023-03-27T06:44:36.757Z,6.80
2023-03-27T06:47:22.206Z,6.90
2023-03-27T06:50:09.080Z,6.80
2023-03-27T06:52:36.942Z,6.80
2023-03-27T06:55:28.083Z,6.90
2023-03-27T06:57:58.195Z,6.90
2023-03-27T07:00:28.786Z,7.00
2023-03-27T07:03:32.988Z,7.00
2023-03-27T07:06:19.187Z,7.10
2023-03-27T07:08:51.557Z,7.10
2023-03-27T07:11:19.192Z,7.20
2023-03-27T07:13:57.586Z,7.20
2023-03-27T07:16:27.050Z,7.20
2023-03-27T07:18:54.125Z,7.30
2023-03-27T07:21:21.020Z,7.30
2023-03-27T07:23:50.206Z,7.40
2023-03-27T07:26:29.925Z,7.40
2023-03-27T07:29:00.847Z,7.50
2023-03-27T07:31:41.970Z,7.50
2023-03-27T07:34:17.712Z,7.60
2023-03-27T07:37:02.925Z,7.70
2023-03-27T07:39:31.808Z,7.80
2023-03-27T07:42:00.664Z,7.90
2023-03-27T07:44:33.095Z,8.00
2023-03-27T07:47:04.088Z,8.00
2023-03-27T07:49:39.885Z,8.10
2023-03-27T07:52:09.070Z,8.10
2023-03-27T07:54:42.973Z,8.10
2023-03-27T07:57:11.214Z,8.10
2023-03-27T07:59:52.598Z,8.10
2023-03-27T08:02:27.583Z,8.10
2023-03-27T08:04:55.128Z,8.20
2023-03-27T08:07:25.408Z,8.20
2023-03-27T08:09:57.337Z,8.20
2023-03-27T08:12:24.183Z,8.20
2023-03-27T08:14:57.394Z,8.20
2023-03-27T08:17:27.559Z,8.20
2023-03-27T08:19:55.336Z,8.30
2023-03-27T08:22:23.594Z,8.30
2023-03-27T08:25:13.373Z,8.30
2023-03-27T08:27:43.349Z,8.40
2023-03-27T08:30:12.499Z,8.40
2023-03-27T08:32:41.580Z,8.40
2023-03-27T08:35:13.387Z,8.40
2023-03-27T08:37:41.414Z,8.40
2023-03-27T08:40:33.882Z,8.40
2023-03-27T08:43:28.688Z,8.40
2023-03-27T08:46:08.149Z,8.50
2023-03-27T08:48:53.319Z,8.50
2023-03-27T08:51:44.023Z,8.60
2023-03-27T08:54:24.215Z,8.60
2023-03-27T08:56:51.419Z,8.60
2023-03-27T08:59:21.060Z,8.70
2023-03-27T09:02:14.391Z,8.80
2023-03-27T09:05:04.394Z,8.90
2023-03-27T09:07:57.727Z,9.00
2023-03-27T09:10:49.446Z,9.00
2023-03-27T09:13:43.083Z,9.10
2023-03-27T09:16:18.290Z,9.20
2023-03-27T09:19:01.336Z,9.30
2023-03-27T09:21:43.199Z,9.40
2023-03-27T09:24:28.090Z,9.50
2023-03-27T09:27:29.570Z,9.50
2023-03-27T09:30:10.881Z,9.60
2023-03-27T09:32:48.362Z,9.70
2023-03-27T09:35:17.861Z,9.80
2023-03-27T09:37:46.528Z,9.80
2023-03-27T09:40:23.438Z,9.80
2023-03-27T09:42:54.483Z,9.80
2023-03-27T09:45:22.061Z,9.90
2023-03-27T09:48:02.073Z,10.00
2023-03-27T09:50:47.244Z,10.00
2023-03-27T09:53:38.976Z,10.10
2023-03-27T09:56:18.882Z,10.20
2023-03-27T09:58:53.825Z,10.30
2023-03-27T10:01:24.983Z,10.20
2023-03-27T10:03:57.089Z,10.30
2023-03-27T10:06:51.225Z,10.30
2023-03-27T10:09:34.263Z,10.30
2023-03-27T10:12:07.274Z,10.30
2023-03-27T10:14:39.279Z,10.40
2023-03-27T10:17:07.336Z,10.40
2023-03-27T10:19:38.990Z,10.40
2023-03-27T10:22:22.685Z,10.50
2023-03-27T10:24:49.489Z,10.60
2023-03-27T10:27:40.360Z,10.60
2023-03-27T10:30:37.842Z,10.70
2023-03-27T10:33:39.821Z,10.70
2023-03-27T10:36:13.245Z,10.70
2023-03-27T10:38:41.639Z,10.70
2023-03-27T10:41:29.478Z,10.60
2023-03-27T10:43:59.571Z,10.50
2023-03-27T10:46:28.861Z,10.50
2023-03-27T10:49:28.639Z,10.50
2023-03-27T10:52:16.760Z,10.50
2023-03-27T10:55:23.161Z,10.50
2023-03-27T10:57:56.632Z,10.50
2023-03-27T11:00:59.351Z,10.50
2023-03-27T11:04:08.938Z,10.60
2023-03-27T11:06:47.849Z,10.70
2023-03-27T11:09:34.612Z,10.70
2023-03-27T11:12:11.412Z,10.80
2023-03-27T11:15:02.346Z,10.90
2023-03-27T11:17:41.699Z,11.00
2023-03-27T11:20:26.435Z,11.10
2023-03-27T11:23:20.795Z,11.20
2023-03-27T11:26:12.267Z,11.10
2023-03-27T11:28:53.993Z,11.10
2023-03-27T11:31:37.930Z,11.10
2023-03-27T11:34:34.177Z,11.10
2023-03-27T11:37:30.493Z,11.00
2023-03-27T11:40:00.624Z,11.10
2023-03-27T11:42:30.879Z,11.10
2023-03-27T11:44:58.770Z,11.10
2023-03-27T11:47:49.840Z,11.10
2023-03-27T11:50:26.048Z,11.10
2023-03-27T11:53:09.272Z,11.10
2023-03-27T11:56:10.160Z,11.10
2023-03-27T11:58:58.110Z,11.20
2023-03-27T12:01:51.252Z,11.20
2023-03-27T12:04:52.051Z,11.20
2023-03-27T12:07:40.581Z,11.20
2023-03-27T12:10:29.074Z,11.20
2023-03-27T12:13:55.050Z,11.20
2023-03-27T12:16:46.060Z,11.30
2023-03-27T12:19:45.728Z,11.40
2023-03-27T12:22:27.086Z,11.40
2023-03-27T12:25:19.944Z,11.40
2023-03-27T12:28:08.436Z,11.30
2023-03-27T12:30:56.752Z,11.20
2023-03-27T12:33:59.100Z,11.00
2023-03-27T12:36:30.812Z,10.90
2023-03-27T12:39:00.373Z,10.80
2023-03-27T12:41:33.443Z,10.70
2023-03-27T12:44:06.175Z,10.70
2023-03-27T12:46:39.273Z,10.70
2023-03-27T12:49:07.461Z,10.80
2023-03-27T12:51:53.643Z,10.80
2023-03-27T12:54:39.343Z,10.70
2023-03-27T12:57:26.066Z,10.70
2023-03-27T13:00:00.074Z,10.70
2023-03-27T13:03:13.809Z,10.70
2023-03-27T13:05:50.262Z,10.70
2023-03-27T13:08:45.610Z,10.70
2023-03-27T13:11:35.077Z,10.70
2023-03-27T13:14:39.333Z,10.70
2023-03-27T13:17:29.425Z,10.80
2023-03-27T13:20:30.326Z,10.80
2023-03-27T13:23:23.471Z,10.90
2023-03-27T13:25:53.072Z,11.00
2023-03-27T13:28:31.819Z,11.10
2023-03-27T13:31:58.200Z,11.20
2023-03-27T13:34:42.291Z,11.40
2023-03-27T13:37:14.165Z,11.50
2023-03-27T13:39:55.708Z,11.60
2023-03-27T13:42:39.787Z,11.40
2023-03-27T13:45:18.045Z,11.20
2023-03-27T13:48:07.698Z,11.00
2023-03-27T13:51:06.296Z,11.00
2023-03-27T13:53:44.493Z,11.40
2023-03-27T13:57:05.361Z,12.10
2023-03-27T14:00:06.171Z,13.20
2023-03-27T14:03:14.648Z,14.10
2023-03-27T14:06:05.193Z,14.70
2023-03-27T14:09:00.161Z,15.30
2023-03-27T14:11:53.533Z,15.70
2023-03-27T14:15:25.155Z,16.20
2023-03-27T14:18:38.099Z,16.80
2023-03-27T14:21:09.848Z,17.40
2023-03-27T14:24:02.310Z,18.10
2023-03-27T14:26:41.686Z,18.80
2023-03-27T14:29:15.286Z,19.50
2023-03-27T14:31:46.139Z,20.10
2023-03-27T14:34:30.347Z,20.70
2023-03-27T14:37:31.079Z,21.20
2023-03-27T14:40:17.477Z,21.20
2023-03-27T14:42:49.286Z,20.80
2023-03-27T14:45:20.079Z,20.10
2023-03-27T14:47:50.867Z,19.20
2023-03-27T14:50:18.276Z,18.30
2023-03-27T14:52:50.260Z,17.40
2023-03-27T14:55:21.930Z,16.70
2023-03-27T14:58:10.935Z,16.30
2023-03-27T15:00:40.473Z,16.40
2023-03-27T15:03:18.669Z,16.70
2023-03-27T15:06:04.318Z,17.30
2023-03-27T15:08:46.350Z,17.80
2023-03-27T15:11:37.176Z,17.80
2023-03-27T15:14:18.332Z,17.80
2023-03-27T15:16:58.227Z,17.90
2023-03-27T15:19:29.985Z,18.00
2023-03-27T15:22:11.982Z,18.30
2023-03-27T15:24:56.084Z,18.60
2023-03-27T15:27:37.968Z,19.00
2023-03-27T15:30:31.841Z,19.40
2023-03-27T15:33:01.991Z,19.70
2023-03-27T15:35:35.809Z,19.90
2023-03-27T15:38:05.390Z,20.00
2023-03-27T15:40:41.848Z,20.20
2023-03-27T15:43:18.197Z,20.60
2023-03-27T15:46:00.026Z,20.90
2023-03-27T15:48:32.068Z,21.30
2023-03-27T15:51:07.241Z,21.50
2023-03-27T15:53:58.900Z,21.70
2023-03-27T15:56:41.259Z,21.80
2023-03-27T15:59:09.442Z,21.70
2023-03-27T16:01:37.413Z,21.50
2023-03-27T16:04:12.633Z,21.00
2023-03-27T16:06:41.982Z,20.40
2023-03-27T16:09:23.598Z,19.70
2023-03-27T16:11:57.398Z,18.90
2023-03-27T16:14:41.759Z,18.20
2023-03-27T16:17:08.929Z,17.50
2023-03-27T16:19:49.004Z,16.80
2023-03-27T16:22:21.373Z,16.40
2023-03-27T16:24:48.161Z,15.90
2023-03-27T16:27:15.417Z,15.70
2023-03-27T16:29:43.821Z,15.40
2023-03-27T16:32:13.215Z,14.90
2023-03-27T16:34:50.154Z,14.60
2023-03-27T16:37:22.616Z,14.30
2023-03-27T16:39:51.549Z,14.10
2023-03-27T16:42:22.640Z,13.90
2023-03-27T16:44:52.994Z,13.80
2023-03-27T16:47:20.460Z,13.70
2023-03-27T16:49:56.187Z,13.70
2023-03-27T16:52:36.712Z,13.80
2023-03-27T16:55:06.984Z,13.90
2023-03-27T16:57:38.413Z,14.00
2023-03-27T17:00:06.165Z,14.10
2023-03-27T17:02:37.466Z,14.10
2023-03-27T17:05:06.618Z,13.90
2023-03-27T17:07:33.678Z,13.70
2023-03-27T17:10:00.601Z,13.50
2023-03-27T17:12:37.163Z,13.30
2023-03-27T17:15:08.055Z,13.10
2023-03-27T17:17:48.319Z,12.90
2023-03-27T17:20:18.155Z,12.60
2023-03-27T17:22:46.670Z,12.50
2023-03-27T17:25:13.281Z,12.20
2023-03-27T17:27:44.070Z,12.10
2023-03-27T17:30:11.011Z,11.90
2023-03-27T17:32:47.975Z,11.60
2023-03-27T17:35:15.868Z,11.60
2023-03-27T17:37:44.829Z,11.50
2023-03-27T17:40:13.681Z,11.30
2023-03-27T17:42:48.284Z,11.20
2023-03-27T17:45:18.813Z,11.10
2023-03-27T17:47:45.398Z,11.00
2023-03-27T17:50:16.191Z,10.90
2023-03-27T17:52:42.790Z,10.80
2023-03-27T17:55:09.488Z,10.70
2023-03-27T17:57:47.343Z,10.60
2023-03-27T18:00:24.062Z,10.50
2023-03-27T18:02:55.047Z,10.40
2023-03-27T18:05:22.938Z,10.40
2023-03-27T18:07:51.655Z,10.30
2023-03-27T18:10:21.153Z,10.20
2023-03-27T18:12:52.354Z,10.10
2023-03-27T18:15:18.978Z,10.10
2023-03-27T18:17:52.815Z,10.00
2023-03-27T18:20:24.383Z,9.90
2023-03-27T18:22:50.937Z,9.90
2023-03-27T18:25:17.536Z,9.90
2023-03-27T18:27:46.529Z,9.80
2023-03-27T18:30:17.314Z,9.70
2023-03-27T18:32:51.470Z,9.70
2023-03-27T18:35:19.723Z,9.60
2023-03-27T18:37:58.459Z,9.50
2023-03-27T18:40:27.499Z,9.50
2023-03-27T18:42:54.168Z,9.40
2023-03-27T18:45:26.241Z,9.40
2023-03-27T18:47:52.917Z,9.30
2023-03-27T18:50:21.967Z,9.30
2023-03-27T18:52:50.787Z,9.20
2023-03-27T18:55:17.736Z,9.10
2023-03-27T18:57:46.353Z,9.10
2023-03-27T19:00:21.812Z,9.10
2023-03-27T19:02:51.002Z,9.00
2023-03-27T19:05:20.781Z,9.00
2023-03-27T19:07:47.386Z,9.00
2023-03-27T19:10:16.322Z,8.90
2023-03-27T19:12:46.227Z,8.90
2023-03-27T19:15:36.970Z,8.90
2023-03-27T19:18:09.061Z,8.80
2023-03-27T19:20:57.176Z,8.80
2023-03-27T19:23:47.197Z,8.70
2023-03-27T19:26:20.802Z,8.70
2023-03-27T19:28:49.846Z,8.60
2023-03-27T19:31:20.731Z,8.60
2023-03-27T19:33:47.321Z,8.60
2023-03-27T19:36:14.049Z,8.50
2023-03-27T19:38:40.958Z,8.50
2023-03-27T19:41:09.463Z,8.50
2023-03-27T19:43:39.120Z,8.50
2023-03-27T19:46:15.572Z,8.40
2023-03-27T19:48:47.352Z,8.40
2023-03-27T19:51:22.707Z,8.30
2023-03-27T19:53:59.654Z,8.30
2023-03-27T19:56:27.132Z,8.30
2023-03-27T19:58:56.486Z,8.20
2023-03-27T20:01:28.710Z,8.20
2023-03-27T20:03:56.968Z,8.20
2023-03-27T20:06:25.782Z,8.20
2023-03-27T20:08:56.081Z,8.10
2023-03-27T20:11:32.435Z,8.10
2023-03-27T20:13:59.537Z,8.00
2023-03-27T20:16:28.158Z,8.00
2023-03-27T20:19:07.574Z,7.90
2023-03-27T20:21:41.979Z,7.90
2023-03-27T20:24:13.828Z,7.90
2023-03-27T20:26:49.317Z,7.80
2023-03-27T20:29:22.633Z,7.80
2023-03-27T20:31:51.961Z,7.80
2023-03-27T20:34:22.141Z,7.70
2023-03-27T20:36:52.704Z,7.70
2023-03-27T20:39:33.176Z,7.70
2023-03-27T20:41:59.760Z,7.70
2023-03-27T20:44:35.326Z,7.70
2023-03-27T20:47:12.647Z,7.60
2023-03-27T20:49:43.726Z,7.60
2023-03-27T20:52:22.951Z,7.60
2023-03-27T20:54:51.741Z,7.50
2023-03-27T20:57:22.055Z,7.50
2023-03-27T20:59:48.639Z,7.50
2023-03-27T21:02:18.269Z,7.50
2023-03-27T21:04:47.596Z,7.50
2023-03-27T21:07:15.654Z,7.40
2023-03-27T21:09:44.720Z,7.40
2023-03-27T21:12:15.791Z,7.40
2023-03-27T21:14:53.445Z,7.40
2023-03-27T21:17:24.518Z,7.30
2023-03-27T21:19:54.745Z,7.30
2023-03-27T21:22:26.126Z,7.30
2023-03-27T21:24:52.760Z,7.20
2023-03-27T21:27:26.029Z,7.20
2023-03-27T21:29:52.597Z,7.20
2023-03-27T21:32:21.405Z,7.20
2023-03-27T21:34:48.920Z,7.20
2023-03-27T21:37:20.215Z,7.10
2023-03-27T21:39:51.090Z,7.10
2023-03-27T21:42:21.706Z,7.00
2023-03-27T21:44:57.533Z,7.00
2023-03-27T21:47:40.805Z,7.00
2023-03-27T21:50:11.833Z,6.90
2023-03-27T21:52:40.216Z,6.90
2023-03-27T21:55:07.033Z,6.80
2023-03-27T21:57:33.599Z,6.90
2023-03-27T22:00:00.143Z,6.80
2023-03-27T22:02:26.751Z,6.80
2023-03-27T22:04:58.745Z,6.80
2023-03-27T22:07:27.628Z,6.80
2023-03-27T22:09:54.189Z,6.70
2023-03-27T22:12:28.190Z,6.70
2023-03-27T22:14:57.904Z,6.70
2023-03-27T22:17:28.570Z,6.70
2023-03-27T22:19:59.062Z,6.70
2023-03-27T22:22:29.301Z,6.60
2023-03-27T22:24:58.309Z,6.60
2023-03-27T22:27:29.995Z,6.60
2023-03-27T22:30:10.596Z,6.50
2023-03-27T22:32:43.105Z,6.60
2023-03-27T22:35:15.616Z,6.50
2023-03-27T22:37:44.822Z,6.50
2023-03-27T22:40:13.202Z,6.50
2023-03-27T22:42:42.508Z,6.50
2023-03-27T22:45:12.561Z,6.50
2023-03-27T22:47:40.430Z,6.40
2023-03-27T22:50:09.945Z,6.40
2023-03-27T22:52:41.550Z,6.40
2023-03-27T22:55:11.335Z,6.40
2023-03-27T22:57:45.295Z,6.40
2023-03-27T23:00:21.104Z,6.30
2023-03-27T23:02:50.235Z,6.30
2023-03-27T23:05:17.854Z,6.30
2023-03-27T23:07:47.187Z,6.20
2023-03-27T23:10:17.545Z,6.20
2023-03-27T23:12:48.849Z,6.30
2023-03-27T23:15:17.849Z,6.20
2023-03-27T23:17:57.197Z,6.20
2023-03-27T23:20:23.867Z,6.20
2023-03-27T23:22:53.077Z,6.10
2023-03-27T23:25:22.871Z,6.10
2023-03-27T23:27:49.578Z,6.10
2023-03-27T23:30:16.335Z,6.10
2023-03-27T23:32:42.993Z,6.00
2023-03-27T23:35:11.928Z,6.00
2023-03-27T23:37:40.511Z,6.00
2023-03-27T23:40:07.900Z,6.00
2023-03-27T23:42:36.629Z,5.90
2023-03-27T23:45:05.727Z,5.90
2023-03-27T23:47:34.960Z,5.90
2023-03-27T23:50:01.984Z,5.90
2023-03-27T23:52:28.536Z,5.80
2023-03-27T23:54:57.335Z,5.80
2023-03-27T23:57:26.098Z,5.80
2023-03-27T23:59:55.176Z,5.80
